Terminal Aerodrome Forecast
Issued by NWS

Home | Current Version | Previous Version | Text Only | Print | Product List | Glossary On
Versions: 1 2 3 4 5 6 7 8 9 10 11 12 13 14 15
000
FTUS42 TJSJ 291900 AAA
TAFJBQ
TAF AMD
TJBQ 291928Z 2919/3018 07012KT P6SM VCSH SCT025 BKN060
     FM292300 11003KT P6SM FEW030
     FM301300 05011KT P6SM FEW035
      AMD NOT SKED 3002/3011=

USA.gov is the U.S. government's official web portal to all federal, state and local government web resources and services.